createdAt,value
2019-04-10T00:00:41.289Z,99.99
2019-04-10T00:01:40.828Z,99.53
2019-04-10T00:03:37.305Z,99.99
2019-04-10T00:04:33.534Z,99.99
2019-04-10T00:06:26.333Z,99.99
2019-04-10T00:07:26.227Z,99.99
2019-04-10T00:09:19.075Z,99.63
2019-04-10T00:10:19.412Z,99.25
2019-04-10T00:12:11.768Z,99.72
2019-04-10T00:13:12.129Z,99.99
2019-04-10T00:15:05.093Z,99.99
2019-04-10T00:16:05.510Z,99.99
2019-04-10T00:17:57.781Z,99.99
2019-04-10T00:18:58.081Z,99.99
2019-04-10T00:20:51.036Z,99.99
2019-04-10T00:21:49.915Z,99.99
2019-04-10T00:23:43.687Z,99.99
2019-04-10T00:24:42.696Z,99.99
2019-04-10T00:26:35.638Z,99.99
2019-04-10T00:27:35.492Z,99.99
2019-04-10T00:29:28.248Z,99.99
2019-04-10T00:30:29.147Z,99.99
2019-04-10T00:32:21.617Z,99.99
2019-04-10T00:33:20.928Z,99.99
2019-04-10T00:35:13.727Z,99.99
2019-04-10T00:36:14.147Z,99.99
2019-04-10T00:38:07.170Z,99.99
2019-04-10T00:39:06.494Z,99.99
2019-04-10T00:40:59.610Z,99.99
2019-04-10T00:41:59.020Z,99.99
2019-04-10T00:43:52.137Z,99.99
2019-04-10T00:44:52.222Z,99.99
2019-04-10T00:46:44.493Z,99.99
2019-04-10T00:47:45.488Z,99.99
2019-04-10T00:49:37.797Z,99.99
2019-04-10T00:50:37.200Z,99.99
2019-04-10T00:52:30.365Z,99.99
2019-04-10T00:53:29.984Z,99.99
2019-04-10T00:55:23.576Z,99.99
2019-04-10T00:56:22.724Z,99.99
2019-04-10T00:58:16.229Z,99.99
2019-04-10T00:59:15.786Z,99.99
2019-04-10T01:01:08.133Z,99.99
2019-04-10T01:02:08.102Z,99.99
2019-04-10T01:04:00.809Z,99.99
2019-04-10T01:05:00.742Z,99.99
2019-04-10T01:06:54.509Z,99.99
2019-04-10T01:07:53.946Z,99.99
2019-04-10T01:09:46.275Z,99.99
2019-04-10T01:10:46.315Z,99.99
2019-04-10T01:12:38.966Z,99.99
2019-04-10T01:13:39.039Z,99.99
2019-04-10T01:15:31.693Z,99.99
2019-04-10T01:16:31.579Z,99.99
2019-04-10T01:18:24.362Z,99.99
2019-04-10T01:19:24.309Z,99.99
2019-04-10T01:21:17.930Z,99.99
2019-04-10T01:22:17.105Z,99.99
2019-04-10T01:24:09.726Z,99.99
2019-04-10T01:25:10.318Z,99.99
2019-04-10T01:27:03.376Z,99.99
2019-04-10T01:28:02.681Z,99.99
2019-04-10T01:29:55.170Z,99.99
2019-04-10T01:30:55.046Z,99.99
2019-04-10T01:32:48.091Z,99.99
2019-04-10T01:33:47.741Z,99.99
2019-04-10T01:35:40.604Z,99.99
2019-04-10T01:36:40.406Z,99.99
2019-04-10T01:38:33.514Z,99.99
2019-04-10T01:39:33.085Z,99.99
2019-04-10T01:41:25.936Z,99.99
2019-04-10T01:42:25.870Z,99.99
2019-04-10T01:44:18.647Z,99.99
2019-04-10T01:45:19.353Z,99.99
2019-04-10T01:47:11.322Z,99.99
2019-04-10T01:48:12.092Z,99.99
2019-04-10T01:50:04.465Z,99.99
2019-04-10T01:51:04.107Z,99.99
2019-04-10T01:52:57.500Z,99.99
2019-04-10T01:53:56.788Z,99.99
2019-04-10T01:56:27.040Z,99.99
2019-04-10T01:57:16.689Z,99.99
2019-04-10T01:59:09.752Z,99.99
2019-04-10T02:00:08.870Z,99.99
2019-04-10T02:02:01.643Z,99.99
2019-04-10T02:03:01.571Z,99.99
2019-04-10T02:04:55.206Z,99.99
2019-04-10T02:05:54.693Z,99.99
2019-04-10T02:07:59.441Z,99.99
2019-04-10T02:08:47.820Z,99.99
2019-04-10T02:10:40.532Z,99.99
2019-04-10T02:11:39.918Z,99.99
2019-04-10T02:13:32.442Z,99.99
2019-04-10T02:14:32.330Z,99.99
2019-04-10T02:16:25.579Z,99.99
2019-04-10T02:17:25.019Z,99.99
2019-04-10T02:19:18.399Z,99.99
2019-04-10T02:20:18.852Z,99.99
2019-04-10T02:22:10.460Z,99.99
2019-04-10T02:23:10.387Z,99.99
2019-04-10T02:25:03.435Z,99.99
2019-04-10T02:26:03.267Z,99.99
2019-04-10T02:27:56.403Z,99.99
2019-04-10T02:28:55.763Z,99.99
2019-04-10T02:30:50.007Z,99.99
2019-04-10T02:31:49.052Z,99.99
2019-04-10T02:33:41.324Z,99.99
2019-04-10T02:34:41.633Z,99.99
2019-04-10T02:36:34.429Z,99.99
2019-04-10T02:37:35.122Z,99.99
2019-04-10T02:39:35.145Z,99.99
2019-04-10T02:40:26.491Z,99.99
2019-04-10T02:42:20.879Z,99.99
2019-04-10T02:43:19.163Z,99.99
2019-04-10T02:45:12.664Z,99.99
2019-04-10T02:46:13.215Z,99.99
2019-04-10T02:48:06.115Z,99.99
2019-04-10T02:49:06.031Z,99.99
2019-04-10T02:50:57.636Z,99.99
2019-04-10T02:51:57.234Z,99.99
2019-04-10T02:53:51.940Z,99.99
2019-04-10T02:54:51.082Z,99.99
2019-04-10T02:56:43.427Z,99.99
2019-04-10T02:57:43.675Z,99.99
2019-04-10T02:59:35.180Z,99.99
2019-04-10T03:00:36.010Z,99.99
2019-04-10T03:02:28.830Z,99.99
2019-04-10T03:03:27.644Z,99.99
2019-04-10T03:05:21.610Z,99.99
2019-04-10T03:06:20.688Z,99.99
2019-04-10T03:08:13.346Z,99.99
2019-04-10T03:09:30.191Z,99.99
2019-04-10T03:11:09.283Z,99.99
2019-04-10T03:12:06.160Z,99.99
2019-04-10T03:13:59.290Z,99.99
2019-04-10T03:14:59.140Z,99.99
2019-04-10T03:16:51.467Z,99.99
2019-04-10T03:17:50.606Z,99.99
2019-04-10T03:19:43.519Z,99.99
2019-04-10T03:20:43.375Z,99.99
2019-04-10T03:22:36.663Z,99.99
2019-04-10T03:23:36.095Z,99.99
2019-04-10T03:25:28.947Z,99.99
2019-04-10T03:26:29.800Z,99.99
2019-04-10T03:28:21.519Z,99.99
2019-04-10T03:29:21.974Z,99.99
2019-04-10T03:31:15.737Z,99.99
2019-04-10T03:32:14.662Z,99.99
2019-04-10T03:34:09.343Z,99.99
2019-04-10T03:35:06.826Z,99.99
2019-04-10T03:37:00.043Z,99.99
2019-04-10T03:37:59.498Z,99.99
2019-04-10T03:39:53.240Z,99.99
2019-04-10T03:40:52.222Z,99.99
2019-04-10T03:42:45.422Z,99.99
2019-04-10T03:43:45.814Z,99.99
2019-04-10T03:45:37.677Z,99.99
2019-04-10T03:46:39.955Z,99.99
2019-04-10T03:48:31.363Z,99.99
2019-04-10T03:49:30.306Z,99.99
2019-04-10T03:51:23.084Z,99.99
2019-04-10T03:52:23.211Z,99.99
2019-04-10T03:54:15.761Z,99.99
2019-04-10T03:55:16.659Z,99.99
2019-04-10T03:57:08.462Z,99.99
2019-04-10T03:58:09.304Z,99.99
2019-04-10T04:00:01.579Z,99.99
2019-04-10T04:01:01.086Z,99.99
2019-04-10T04:02:53.897Z,99.99
2019-04-10T04:03:53.759Z,99.99
2019-04-10T04:05:46.766Z,99.99
2019-04-10T04:06:46.434Z,99.99
2019-04-10T04:08:39.505Z,99.99
2019-04-10T04:09:39.776Z,99.99
2019-04-10T04:11:31.893Z,99.99
2019-04-10T04:12:32.780Z,99.99
2019-04-10T04:14:24.584Z,99.99
2019-04-10T04:15:24.524Z,99.99
2019-04-10T04:17:17.277Z,99.99
2019-04-10T04:18:17.279Z,99.99
2019-04-10T04:20:10.813Z,99.99
2019-04-10T04:21:09.878Z,99.99
2019-04-10T04:23:03.470Z,99.99
2019-04-10T04:24:03.540Z,99.99
2019-04-10T04:25:55.352Z,99.99
2019-04-10T04:26:55.280Z,99.99
2019-04-10T04:28:48.022Z,99.99
2019-04-10T04:29:47.945Z,99.99
2019-04-10T04:31:40.712Z,99.99
2019-04-10T04:32:40.649Z,99.99
2019-04-10T04:34:33.384Z,99.99
2019-04-10T04:35:33.322Z,99.99
2019-04-10T04:37:26.245Z,99.99
2019-04-10T04:38:26.062Z,99.99
2019-04-10T04:40:19.669Z,99.99
2019-04-10T04:41:19.558Z,99.99
2019-04-10T04:43:12.487Z,99.99
2019-04-10T04:44:12.391Z,99.99
2019-04-10T04:46:04.578Z,99.99
2019-04-10T04:47:06.190Z,99.99
2019-04-10T04:48:57.743Z,99.99
2019-04-10T04:49:57.254Z,99.99
2019-04-10T04:51:50.820Z,99.99
2019-04-10T04:52:50.252Z,99.99
2019-04-10T04:54:43.527Z,99.99
2019-04-10T04:55:42.836Z,99.99
2019-04-10T04:57:37.847Z,99.99
2019-04-10T04:58:36.049Z,99.99
2019-04-10T05:00:28.222Z,99.99
2019-04-10T05:01:28.208Z,99.99
2019-04-10T05:03:22.882Z,99.99
2019-04-10T05:04:21.490Z,99.99
2019-04-10T05:06:14.334Z,99.99
2019-04-10T05:07:14.913Z,99.99
2019-04-10T05:09:06.960Z,99.99
2019-04-10T05:10:07.112Z,99.99
2019-04-10T05:12:00.653Z,99.99
2019-04-10T05:12:59.935Z,99.99
2019-04-10T05:14:52.349Z,99.99
2019-04-10T05:15:53.295Z,99.99
2019-04-10T05:17:45.154Z,99.99
2019-04-10T05:18:45.658Z,99.99
2019-04-10T05:20:44.121Z,99.99
2019-04-10T05:21:37.660Z,99.99
2019-04-10T05:23:30.971Z,99.99
2019-04-10T05:24:30.348Z,99.99
2019-04-10T05:26:23.131Z,99.99
2019-04-10T05:27:23.020Z,99.99
2019-04-10T05:29:15.767Z,99.99
2019-04-10T05:30:16.417Z,99.99
2019-04-10T05:32:09.284Z,99.99
2019-04-10T05:33:08.385Z,99.99
2019-04-10T05:35:03.979Z,99.99
2019-04-10T05:36:01.383Z,99.99
2019-04-10T05:37:54.144Z,99.99
2019-04-10T05:38:54.434Z,99.99
2019-04-10T05:40:46.508Z,99.99
2019-04-10T05:41:47.053Z,99.99
2019-04-10T05:43:39.363Z,99.99
2019-04-10T05:44:40.129Z,99.99
2019-04-10T05:46:32.564Z,99.99
2019-04-10T05:47:32.401Z,99.99
2019-04-10T05:49:24.690Z,99.99
2019-04-10T05:50:24.507Z,99.99
2019-04-10T05:52:18.180Z,99.99
2019-04-10T05:53:18.356Z,99.99
2019-04-10T05:55:09.975Z,99.99
2019-04-10T05:56:09.925Z,99.99
2019-04-10T05:58:02.647Z,99.99
2019-04-10T05:59:03.034Z,99.99
2019-04-10T06:00:55.370Z,99.99
2019-04-10T06:01:55.271Z,99.99
2019-04-10T06:03:49.091Z,99.99
2019-04-10T06:04:47.947Z,99.99
2019-04-10T06:06:40.934Z,99.99
2019-04-10T06:07:41.335Z,99.99
2019-04-10T06:09:33.412Z,99.99
2019-04-10T06:10:34.226Z,99.99
2019-04-10T06:12:26.480Z,99.99
2019-04-10T06:13:26.009Z,99.99
2019-04-10T06:15:19.054Z,99.99
2019-04-10T06:16:19.482Z,99.99
2019-04-10T06:18:12.800Z,99.99
2019-04-10T06:19:11.509Z,99.99
2019-04-10T06:21:05.094Z,99.99
2019-04-10T06:22:05.194Z,99.99
2019-04-10T06:23:58.230Z,99.99
2019-04-10T06:24:56.897Z,99.99
2019-04-10T06:26:50.078Z,99.99
2019-04-10T06:27:50.581Z,99.99
2019-04-10T06:29:43.437Z,99.99
2019-04-10T06:30:42.273Z,99.99
2019-04-10T06:32:35.041Z,99.31
2019-04-10T06:33:36.000Z,95.79
2019-04-10T06:35:28.180Z,89.13
2019-04-10T06:36:27.663Z,86.55
2019-04-10T06:38:21.004Z,82.20
2019-04-10T06:39:20.558Z,80.62
2019-04-10T06:41:15.083Z,79.30
2019-04-10T06:42:14.190Z,80.79
2019-04-10T06:44:05.850Z,87.99
2019-04-10T06:45:05.838Z,90.66
2019-04-10T06:46:58.573Z,93.98
2019-04-10T06:47:58.527Z,91.56
2019-04-10T06:49:51.320Z,95.17
2019-04-10T06:50:51.208Z,96.74
2019-04-10T06:52:44.996Z,97.64
2019-04-10T06:53:44.931Z,95.65
2019-04-10T06:55:36.689Z,94.56
2019-04-10T06:56:37.509Z,96.26
2019-04-10T06:58:29.378Z,96.36
2019-04-10T06:59:30.350Z,95.60
2019-04-10T07:01:44.334Z,96.17
2019-04-10T07:02:36.083Z,95.98
2019-04-10T07:04:28.399Z,94.98
2019-04-10T07:05:37.168Z,94.42
2019-04-10T07:07:23.441Z,93.46
2019-04-10T07:08:23.666Z,89.56
2019-04-10T07:10:22.456Z,88.37
2019-04-10T07:11:13.609Z,89.51
2019-04-10T07:13:08.626Z,85.89
2019-04-10T07:14:10.381Z,83.84
2019-04-10T07:15:58.606Z,77.93
2019-04-10T07:17:04.980Z,79.36
2019-04-10T07:18:51.967Z,80.90
2019-04-10T07:19:51.409Z,81.95
2019-04-10T07:21:44.068Z,82.75
2019-04-10T07:22:46.506Z,81.76
2019-04-10T07:24:39.677Z,82.70
2019-04-10T07:25:37.443Z,83.94
2019-04-10T07:27:33.563Z,82.90
2019-04-10T07:28:29.883Z,82.86
2019-04-10T07:30:25.199Z,84.56
2019-04-10T07:31:21.826Z,85.19
2019-04-10T07:33:16.760Z,85.95
2019-04-10T07:34:15.118Z,86.52
2019-04-10T07:36:10.948Z,88.47
2019-04-10T07:37:09.455Z,88.33
2019-04-10T07:39:00.019Z,88.52
2019-04-10T07:40:03.016Z,88.42
2019-04-10T07:41:53.646Z,89.33
2019-04-10T07:42:52.637Z,90.75
2019-04-10T07:44:45.467Z,90.28
2019-04-10T07:45:45.337Z,90.85
2019-04-10T07:47:38.180Z,88.61
2019-04-10T07:48:38.088Z,86.14
2019-04-10T07:50:30.852Z,85.66
2019-04-10T07:51:31.803Z,85.80
2019-04-10T07:53:24.619Z,83.18
2019-04-10T07:54:24.483Z,80.65
2019-04-10T07:56:20.382Z,78.99
2019-04-10T07:57:16.303Z,79.81
2019-04-10T07:59:08.944Z,81.62
2019-04-10T08:00:09.063Z,79.81
2019-04-10T08:02:02.534Z,81.05
2019-04-10T08:03:01.561Z,80.29
2019-04-10T08:04:54.359Z,80.29
2019-04-10T08:05:54.754Z,81.05
2019-04-10T08:07:47.313Z,81.29
2019-04-10T08:08:46.968Z,81.67
2019-04-10T08:10:42.314Z,81.14
2019-04-10T08:11:40.209Z,80.76
2019-04-10T08:13:33.106Z,79.66
2019-04-10T08:14:32.543Z,78.14
2019-04-10T08:16:25.429Z,77.37
2019-04-10T08:17:25.070Z,78.04
2019-04-10T08:19:18.685Z,76.81
2019-04-10T08:20:17.789Z,77.32
2019-04-10T08:22:10.540Z,75.13
2019-04-10T08:23:10.473Z,75.32
2019-04-10T08:25:04.288Z,74.56
2019-04-10T08:26:03.591Z,73.65
2019-04-10T08:27:56.408Z,72.31
2019-04-10T08:28:55.862Z,71.45
2019-04-10T08:30:48.694Z,71.36
2019-04-10T08:31:48.621Z,71.03
2019-04-10T08:33:42.009Z,72.05
2019-04-10T08:34:42.128Z,72.90
2019-04-10T08:36:35.243Z,73.00
2019-04-10T08:37:34.831Z,72.71
2019-04-10T08:39:36.045Z,73.28
2019-04-10T08:40:27.770Z,72.85
2019-04-10T08:42:19.473Z,71.36
2019-04-10T08:43:20.194Z,71.83
2019-04-10T08:45:13.254Z,69.62
2019-04-10T08:46:12.917Z,67.33
2019-04-10T08:48:05.740Z,67.86
2019-04-10T08:49:05.691Z,68.53
2019-04-10T08:50:58.849Z,69.77
2019-04-10T08:51:57.856Z,69.39
2019-04-10T08:53:50.820Z,69.83
2019-04-10T08:54:51.208Z,69.93
2019-04-10T08:56:43.008Z,70.06
2019-04-10T08:57:43.825Z,69.58
2019-04-10T08:59:36.763Z,68.34
2019-04-10T09:00:36.466Z,67.93
2019-04-10T09:02:28.737Z,66.85
2019-04-10T09:03:28.343Z,66.41
2019-04-10T09:05:21.656Z,63.89
2019-04-10T09:06:21.055Z,61.32
2019-04-10T09:08:14.894Z,60.83
2019-04-10T09:09:13.778Z,59.52
2019-04-10T09:11:07.134Z,55.53
2019-04-10T09:12:07.295Z,54.97
2019-04-10T09:13:59.261Z,60.36
2019-04-10T09:14:59.362Z,60.96
2019-04-10T09:16:53.022Z,60.07
2019-04-10T09:17:51.926Z,60.93
2019-04-10T09:19:44.760Z,60.14
2019-04-10T09:20:44.793Z,60.52
2019-04-10T09:22:57.994Z,60.49
2019-04-10T09:23:44.565Z,61.89
2019-04-10T09:25:31.199Z,65.00
2019-04-10T09:26:30.604Z,65.17
2019-04-10T09:28:23.003Z,63.23
2019-04-10T09:29:24.232Z,61.98
2019-04-10T09:31:15.810Z,60.77
2019-04-10T09:32:15.641Z,60.30
2019-04-10T09:34:09.604Z,58.95
2019-04-10T09:35:08.769Z,59.08
2019-04-10T09:37:01.894Z,57.42
2019-04-10T09:38:02.090Z,55.91
2019-04-10T09:39:54.946Z,54.96
2019-04-10T09:40:53.806Z,55.07
2019-04-10T09:42:47.896Z,57.87
2019-04-10T09:43:47.609Z,57.24
2019-04-10T09:45:39.449Z,59.66
2019-04-10T09:46:39.355Z,59.88
2019-04-10T09:48:32.135Z,58.56
2019-04-10T09:49:39.732Z,56.90
2019-04-10T09:51:25.629Z,54.57
2019-04-10T09:52:25.758Z,54.86
2019-04-10T09:54:17.583Z,54.67
2019-04-10T09:55:18.002Z,54.10
2019-04-10T09:57:11.159Z,54.03
2019-04-10T09:58:10.212Z,54.22
2019-04-10T10:00:03.227Z,53.94
2019-04-10T10:01:03.074Z,56.21
2019-04-10T10:02:55.748Z,57.87
2019-04-10T10:03:55.657Z,57.17
2019-04-10T10:05:48.437Z,58.83
2019-04-10T10:06:49.208Z,58.83
2019-04-10T10:08:41.665Z,58.64
2019-04-10T10:09:41.140Z,59.15
2019-04-10T10:11:34.136Z,58.89
2019-04-10T10:12:34.349Z,58.12
2019-04-10T10:14:26.661Z,58.83
2019-04-10T10:15:27.409Z,58.86
2019-04-10T10:17:20.339Z,57.84
2019-04-10T10:18:19.379Z,58.63
2019-04-10T10:20:13.296Z,58.15
2019-04-10T10:21:12.416Z,58.12
2019-04-10T10:23:05.401Z,56.75
2019-04-10T10:24:04.716Z,56.20
2019-04-10T10:25:57.542Z,56.39
2019-04-10T10:26:57.748Z,54.96
2019-04-10T10:28:50.202Z,55.83
2019-04-10T10:29:53.004Z,57.87
2019-04-10T10:31:42.934Z,58.99
2019-04-10T10:32:43.779Z,60.30
2019-04-10T10:34:36.701Z,58.95
2019-04-10T10:35:35.592Z,58.54
2019-04-10T10:37:28.403Z,61.03
2019-04-10T10:38:29.410Z,61.03
2019-04-10T10:40:21.164Z,60.93
2019-04-10T10:41:22.184Z,61.57
2019-04-10T10:43:14.043Z,62.05
2019-04-10T10:44:13.754Z,61.95
2019-04-10T10:46:07.225Z,59.11
2019-04-10T10:47:06.490Z,55.15
2019-04-10T10:49:00.082Z,55.27
2019-04-10T10:49:59.200Z,54.60
2019-04-10T10:51:53.211Z,53.83
2019-04-10T10:52:52.204Z,53.45
2019-04-10T10:54:45.199Z,53.78
2019-04-10T10:55:45.519Z,55.98
2019-04-10T10:57:37.570Z,55.12
2019-04-10T10:58:37.565Z,55.10
2019-04-10T11:00:31.338Z,57.31
2019-04-10T11:01:30.082Z,58.64
2019-04-10T11:03:22.877Z,60.42
2019-04-10T11:04:23.252Z,59.78
2019-04-10T11:06:16.745Z,59.47
2019-04-10T11:07:16.171Z,59.98
2019-04-10T11:09:08.420Z,58.80
2019-04-10T11:10:08.607Z,58.73
2019-04-10T11:12:01.730Z,59.38
2019-04-10T11:13:02.237Z,59.56
2019-04-10T11:14:53.813Z,60.24
2019-04-10T11:15:53.679Z,59.82
2019-04-10T11:17:46.474Z,60.81
2019-04-10T11:18:46.877Z,60.07
2019-04-10T11:20:39.404Z,59.56
2019-04-10T11:21:39.105Z,59.28
2019-04-10T11:23:31.901Z,59.22
2019-04-10T11:24:31.853Z,60.84
2019-04-10T11:26:25.734Z,62.46
2019-04-10T11:27:25.306Z,61.44
2019-04-10T11:29:17.554Z,59.82
2019-04-10T11:30:18.300Z,58.90
2019-04-10T11:32:11.640Z,57.31
2019-04-10T11:33:10.996Z,56.89
2019-04-10T11:35:03.584Z,57.28
2019-04-10T11:36:03.794Z,56.48
2019-04-10T11:37:59.020Z,58.36
2019-04-10T11:39:00.573Z,58.68
2019-04-10T11:40:49.567Z,57.46
2019-04-10T11:41:49.097Z,58.33
2019-04-10T11:43:41.672Z,56.67
2019-04-10T11:44:44.374Z,57.34
2019-04-10T11:46:35.297Z,58.04
2019-04-10T11:47:35.408Z,57.43
2019-04-10T11:49:27.702Z,57.34
2019-04-10T11:50:28.126Z,57.31
2019-04-10T11:52:24.441Z,59.63
2019-04-10T11:53:19.086Z,59.06
2019-04-10T11:56:11.802Z,61.10
2019-04-10T11:58:05.622Z,61.10
2019-04-10T11:59:07.621Z,61.67
2019-04-10T12:00:59.461Z,62.08
2019-04-10T12:03:53.949Z,61.07
2019-04-10T12:04:55.707Z,59.16
2019-04-10T12:06:43.146Z,59.06
2019-04-10T12:08:09.623Z,58.39
2019-04-10T12:12:28.117Z,59.70
2019-04-10T12:13:27.880Z,58.84
2019-04-10T12:15:20.701Z,58.04
2019-04-10T12:16:20.985Z,58.14
2019-04-10T12:18:14.110Z,57.50
2019-04-10T12:19:13.327Z,57.41
2019-04-10T12:21:07.259Z,57.15
2019-04-10T12:22:06.127Z,55.91
2019-04-10T12:23:58.963Z,55.05
2019-04-10T12:24:58.754Z,54.96
2019-04-10T12:26:51.934Z,55.62
2019-04-10T12:27:51.612Z,56.20
2019-04-10T12:29:44.255Z,57.24
2019-04-10T12:30:44.189Z,57.24
2019-04-10T12:32:36.956Z,57.12
2019-04-10T12:33:37.916Z,57.41
2019-04-10T12:35:29.820Z,57.43
2019-04-10T12:36:29.585Z,58.01
2019-04-10T12:38:23.449Z,57.24
2019-04-10T12:39:23.156Z,57.50
2019-04-10T12:41:15.923Z,57.60
2019-04-10T12:42:16.443Z,57.00
2019-04-10T12:44:09.611Z,57.67
2019-04-10T12:45:08.560Z,58.33
2019-04-10T12:47:01.661Z,58.17
2019-04-10T12:48:02.115Z,57.50
2019-04-10T12:49:54.071Z,56.48
2019-04-10T12:50:55.070Z,55.82
2019-04-10T12:52:47.782Z,56.10
2019-04-10T12:53:47.695Z,56.04
2019-04-10T12:55:39.428Z,56.06
2019-04-10T12:56:40.189Z,54.50
2019-04-10T12:58:32.976Z,54.67
2019-04-10T12:59:33.169Z,55.15
2019-04-10T13:01:24.868Z,54.96
2019-04-10T13:02:25.820Z,55.82
2019-04-10T13:04:18.010Z,55.91
2019-04-10T13:05:17.515Z,56.10
2019-04-10T13:07:11.455Z,56.58
2019-04-10T13:08:17.869Z,56.48
2019-04-10T13:10:04.455Z,56.10
2019-04-10T13:11:04.431Z,56.10
2019-04-10T13:12:55.999Z,54.86
2019-04-10T13:13:55.915Z,55.05
2019-04-10T13:15:49.723Z,55.46
2019-04-10T13:16:48.605Z,55.55
2019-04-10T13:18:41.386Z,55.08
2019-04-10T13:19:41.307Z,55.46
2019-04-10T13:21:34.679Z,55.46
2019-04-10T13:22:34.009Z,55.62
2019-04-10T13:24:27.931Z,55.79
2019-04-10T13:25:27.320Z,56.46
2019-04-10T13:27:20.865Z,57.41
2019-04-10T13:28:19.974Z,58.04
2019-04-10T13:30:14.485Z,57.95
2019-04-10T13:31:12.982Z,59.28
2019-04-10T13:33:06.610Z,58.62
2019-04-10T13:34:05.466Z,58.91
2019-04-10T13:35:58.152Z,58.81
2019-04-10T13:36:58.114Z,58.72
2019-04-10T13:38:50.867Z,58.75
2019-04-10T13:39:50.999Z,57.50
2019-04-10T13:41:43.559Z,58.58
2019-04-10T13:42:43.495Z,57.92
2019-04-10T13:44:36.267Z,57.12
2019-04-10T13:45:36.204Z,57.12
2019-04-10T13:47:30.228Z,57.12
2019-04-10T13:48:29.229Z,56.46
2019-04-10T13:50:22.221Z,56.65
2019-04-10T13:51:21.616Z,55.98
2019-04-10T13:53:15.474Z,56.46
2019-04-10T13:54:15.848Z,56.55
2019-04-10T13:56:07.134Z,55.88
2019-04-10T13:57:07.789Z,55.21
2019-04-10T13:59:00.556Z,55.31
2019-04-10T14:00:00.006Z,55.19
2019-04-10T14:02:04.792Z,55.57
2019-04-10T14:03:03.948Z,56.52
2019-04-10T14:04:57.447Z,59.76
2019-04-10T14:05:57.069Z,60.27
2019-04-10T14:07:49.369Z,60.62
2019-04-10T14:09:07.855Z,61.38
2019-04-10T14:10:41.975Z,61.73
2019-04-10T14:11:41.844Z,62.21
2019-04-10T14:13:35.811Z,62.12
2019-04-10T14:14:35.079Z,62.02
2019-04-10T14:16:27.398Z,61.93
2019-04-10T14:17:27.766Z,61.38
2019-04-10T14:19:20.070Z,61.48
2019-04-10T14:20:20.308Z,61.86
2019-04-10T14:22:13.529Z,61.22
2019-04-10T14:23:12.738Z,60.84
2019-04-10T14:25:05.470Z,60.55
2019-04-10T14:26:06.417Z,61.04
2019-04-10T14:27:58.669Z,60.65
2019-04-10T14:28:59.607Z,59.79
2019-04-10T14:30:51.666Z,59.41
2019-04-10T14:31:51.306Z,59.31
2019-04-10T14:33:44.790Z,59.03
2019-04-10T14:34:44.893Z,58.94
2019-04-10T14:36:36.789Z,57.60
2019-04-10T14:37:37.799Z,57.98
2019-04-10T14:39:29.535Z,58.84
2019-04-10T14:40:30.446Z,58.87
2019-04-10T14:42:22.403Z,58.20
2019-04-10T14:43:22.899Z,58.01
2019-04-10T14:45:15.229Z,57.41
2019-04-10T14:46:14.871Z,58.36
2019-04-10T14:48:07.911Z,58.75
2019-04-10T14:49:07.595Z,58.75
2019-04-10T14:51:00.393Z,57.89
2019-04-10T14:52:00.981Z,57.67
2019-04-10T14:53:53.294Z,58.81
2019-04-10T14:54:53.031Z,58.62
2019-04-10T14:56:46.349Z,61.00
2019-04-10T14:57:45.739Z,61.96
2019-04-10T14:59:38.547Z,62.91
2019-04-10T15:00:39.205Z,63.10
2019-04-10T15:02:31.276Z,63.29
2019-04-10T15:03:31.175Z,63.57
2019-04-10T15:05:23.942Z,63.07
2019-04-10T15:06:24.388Z,63.73
2019-04-10T15:08:17.562Z,63.92
2019-04-10T15:09:22.750Z,64.40
2019-04-10T15:11:09.378Z,64.40
2019-04-10T15:12:10.068Z,64.56
2019-04-10T15:14:02.059Z,64.56
2019-04-10T15:15:02.036Z,64.21
2019-04-10T15:17:00.144Z,63.80
2019-04-10T15:17:54.672Z,63.54
2019-04-10T15:19:49.831Z,63.17
2019-04-10T15:20:47.371Z,63.54
2019-04-10T15:22:40.143Z,63.26
2019-04-10T15:23:40.068Z,62.88
2019-04-10T15:25:33.260Z,62.88
2019-04-10T15:26:32.786Z,62.97
2019-04-10T15:28:25.574Z,62.68
2019-04-10T15:29:25.496Z,62.68
2019-04-10T15:31:19.373Z,61.73
2019-04-10T15:32:18.261Z,62.21
2019-04-10T15:34:11.942Z,63.35
2019-04-10T15:35:10.906Z,63.54
2019-04-10T15:37:04.669Z,63.17
2019-04-10T15:38:04.032Z,62.88
2019-04-10T15:39:56.426Z,63.26
2019-04-10T15:40:56.783Z,63.64
2019-04-10T15:42:49.211Z,62.85
2019-04-10T15:43:49.770Z,63.51
2019-04-10T15:45:42.034Z,63.70
2019-04-10T15:46:41.805Z,63.42
2019-04-10T15:48:35.627Z,63.51
2019-04-10T15:49:34.588Z,63.80
2019-04-10T15:51:27.990Z,63.51
2019-04-10T15:52:27.214Z,63.57
2019-04-10T15:54:19.990Z,64.62
2019-04-10T15:55:19.909Z,64.05
2019-04-10T15:57:12.672Z,63.89
2019-04-10T15:58:12.616Z,63.96
2019-04-10T16:00:05.509Z,63.29
2019-04-10T16:01:05.625Z,63.48
2019-04-10T16:02:58.229Z,63.29
2019-04-10T16:03:58.944Z,63.86
2019-04-10T16:05:50.932Z,63.96
2019-04-10T16:06:50.868Z,63.57
2019-04-10T16:08:44.762Z,63.39
2019-04-10T16:09:49.897Z,63.10
2019-04-10T16:11:36.403Z,63.57
2019-04-10T16:12:36.343Z,64.05
2019-04-10T16:14:31.380Z,63.48
2019-04-10T16:15:29.111Z,63.57
2019-04-10T16:17:23.633Z,63.67
2019-04-10T16:18:21.703Z,65.00
2019-04-10T16:20:15.466Z,65.77
2019-04-10T16:21:14.421Z,66.24
2019-04-10T16:23:08.053Z,66.05
2019-04-10T16:24:07.159Z,65.58
2019-04-10T16:26:00.882Z,63.86
2019-04-10T16:27:00.016Z,64.15
2019-04-10T16:28:53.611Z,64.81
2019-04-10T16:29:53.112Z,64.24
2019-04-10T16:31:46.161Z,65.00
2019-04-10T16:32:45.227Z,64.34
2019-04-10T16:34:38.704Z,64.05
2019-04-10T16:35:38.395Z,63.48
2019-04-10T16:37:31.359Z,64.05
2019-04-10T16:38:31.091Z,63.48
2019-04-10T16:40:23.618Z,63.99
2019-04-10T16:41:26.514Z,63.70
2019-04-10T16:43:16.111Z,63.23
2019-04-10T16:44:17.179Z,62.81
2019-04-10T16:46:09.083Z,62.75
2019-04-10T16:47:09.953Z,62.37
2019-04-10T16:49:01.536Z,63.13
2019-04-10T16:50:01.529Z,62.27
2019-04-10T16:51:54.193Z,60.05
2019-04-10T16:52:54.129Z,59.77
2019-04-10T16:54:46.906Z,59.39
2019-04-10T16:55:47.114Z,58.72
2019-04-10T16:57:39.839Z,59.29
2019-04-10T16:58:41.124Z,60.44
2019-04-10T17:00:32.312Z,59.67
2019-04-10T17:01:33.010Z,59.58
2019-04-10T17:03:25.372Z,60.05
2019-04-10T17:04:25.789Z,59.93
2019-04-10T17:06:17.926Z,59.27
2019-04-10T17:07:18.892Z,59.36
2019-04-10T17:09:10.575Z,60.60
2019-04-10T17:10:16.692Z,61.07
2019-04-10T17:12:03.985Z,61.45
2019-04-10T17:13:04.359Z,60.97
2019-04-10T17:14:55.953Z,64.50
2019-04-10T17:15:55.889Z,66.11
2019-04-10T17:17:48.723Z,64.50
2019-04-10T17:18:49.618Z,63.83
2019-04-10T17:20:41.374Z,63.70
2019-04-10T17:21:42.473Z,63.42
2019-04-10T17:23:34.443Z,65.60
2019-04-10T17:24:33.980Z,64.87
2019-04-10T17:26:26.770Z,65.22
2019-04-10T17:27:27.731Z,66.46
2019-04-10T17:29:19.496Z,66.74
2019-04-10T17:30:19.968Z,65.99
2019-04-10T17:32:13.210Z,66.27
2019-04-10T17:33:13.183Z,65.60
2019-04-10T17:35:05.345Z,66.17
2019-04-10T17:36:04.815Z,66.17
2019-04-10T17:37:58.171Z,66.36
2019-04-10T17:38:58.661Z,66.65
2019-04-10T17:40:53.246Z,65.80
2019-04-10T17:41:50.332Z,64.94
2019-04-10T17:43:45.500Z,67.22
2019-04-10T17:44:45.551Z,67.50
2019-04-10T17:46:37.412Z,66.17
2019-04-10T17:47:37.177Z,65.32
2019-04-10T17:49:30.016Z,65.80
2019-04-10T17:50:30.107Z,65.51
2019-04-10T17:52:22.997Z,65.70
2019-04-10T17:53:23.136Z,65.60
2019-04-10T17:55:15.661Z,66.65
2019-04-10T17:56:15.886Z,67.79
2019-04-10T17:58:09.611Z,65.80
2019-04-10T17:59:09.851Z,67.32
2019-04-10T18:01:02.032Z,66.55
2019-04-10T18:02:02.147Z,66.61
2019-04-10T18:03:58.400Z,67.22
2019-04-10T18:04:55.938Z,66.33
2019-04-10T18:06:48.456Z,67.47
2019-04-10T18:07:48.138Z,68.90
2019-04-10T18:09:40.964Z,69.18
2019-04-10T18:10:47.397Z,68.90
2019-04-10T18:12:34.135Z,68.04
2019-04-10T18:13:34.183Z,68.61
2019-04-10T18:15:26.196Z,67.76
2019-04-10T18:16:26.071Z,68.13
2019-04-10T18:18:19.837Z,67.94
2019-04-10T18:19:19.148Z,68.71
2019-04-10T18:21:12.680Z,68.33
2019-04-10T18:22:12.182Z,69.27
2019-04-10T18:24:04.617Z,69.66
2019-04-10T18:25:05.431Z,68.99
2019-04-10T18:26:58.380Z,70.99
2019-04-10T18:27:57.238Z,72.03
2019-04-10T18:29:50.160Z,70.70
2019-04-10T18:30:49.952Z,69.94
2019-04-10T18:32:43.304Z,71.04
2019-04-10T18:33:43.110Z,69.91
2019-04-10T18:35:36.228Z,69.71
2019-04-10T18:36:36.330Z,70.76
2019-04-10T18:38:29.865Z,71.33